Time;durP1;ratioP1;P1;durP2;ratioP2;P2;SDS_P1;SDS_P2;PMS_P1;PMS_P2;Temp;Humidity;BMP_temperature;BMP_pressure;BME280_temperature;BME280_humidity;BME280_pressure;Samples;Min_cycle;Max_cycle;Signal;HPM_P1;HPM_P2
2023/12/09 00:00:18;;;;;;;111.55;30.83;;;7.30;99.90;;;;;;5055640;28;20457;-65
2023/12/09 00:02:43;;;;;;;107.18;31.05;;;7.30;99.90;;;;;;5030789;28;20102;-66
2023/12/09 00:05:09;;;;;;;104.30;32.10;;;7.30;99.90;;;;;;5054195;28;20055;-66
2023/12/09 00:07:35;;;;;;;100.63;31.33;;;7.30;99.90;;;;;;5069817;28;20037;-66
2023/12/09 00:10:01;;;;;;;113.45;31.08;;;7.30;99.90;;;;;;5046967;28;20074;-66
2023/12/09 00:12:27;;;;;;;106.53;30.17;;;7.40;99.90;;;;;;5045780;28;20063;-66
2023/12/09 00:14:53;;;;;;;113.50;31.50;;;7.30;99.90;;;;;;5030319;28;20046;-64
2023/12/09 00:17:18;;;;;;;104.80;30.83;;;7.40;99.90;;;;;;5051735;28;20117;-65
2023/12/09 00:19:44;;;;;;;98.63;29.73;;;7.40;99.90;;;;;;5065839;28;20048;-65
2023/12/09 00:22:10;;;;;;;93.20;32.35;;;7.40;99.90;;;;;;5048790;28;20052;-65
2023/12/09 00:24:35;;;;;;;104.40;29.58;;;7.40;99.90;;;;;;5059293;28;20052;-65
2023/12/09 00:27:01;;;;;;;100.60;29.80;;;7.40;99.90;;;;;;5067421;28;20460;-71
2023/12/09 00:29:27;;;;;;;104.45;29.90;;;7.40;99.90;;;;;;5031481;28;20205;-65
2023/12/09 00:31:52;;;;;;;112.25;31.20;;;7.40;99.90;;;;;;5060769;28;20672;-66
2023/12/09 00:34:18;;;;;;;110.03;29.95;;;7.80;99.90;;;;;;5053071;28;20120;-65
2023/12/09 00:36:44;;;;;;;100.68;30.60;;;7.80;99.90;;;;;;5050037;28;20579;-65
2023/12/09 00:39:09;;;;;;;102.20;29.23;;;7.40;99.90;;;;;;5057738;28;20067;-65
2023/12/09 00:41:35;;;;;;;116.20;28.83;;;7.40;99.90;;;;;;5052165;28;20099;-65
2023/12/09 00:44:01;;;;;;;120.38;30.83;;;7.40;99.90;;;;;;5052652;28;20460;-65
2023/12/09 00:46:26;;;;;;;103.00;29.83;;;7.40;99.90;;;;;;5058337;28;20131;-66
2023/12/09 00:48:52;;;;;;;87.15;28.27;;;7.40;99.90;;;;;;5058196;28;20098;-65
2023/12/09 00:51:18;;;;;;;103.50;29.48;;;7.40;99.90;;;;;;5047400;28;20053;-69
2023/12/09 00:53:43;;;;;;;91.78;29.00;;;7.40;99.90;;;;;;5068298;28;20063;-65
2023/12/09 00:56:09;;;;;;;89.93;27.45;;;7.40;99.90;;;;;;5041905;28;20742;-65
2023/12/09 00:58:35;;;;;;;84.10;28.35;;;7.40;99.90;;;;;;5046981;28;20049;-65
2023/12/09 01:01:00;;;;;;;88.10;28.65;;;7.40;99.90;;;;;;5053075;28;20033;-65
2023/12/09 01:03:26;;;;;;;94.78;27.65;;;7.40;99.90;;;;;;5046749;28;20064;-65
2023/12/09 01:05:52;;;;;;;86.43;28.48;;;7.40;99.90;;;;;;5048385;28;20489;-66
2023/12/09 01:08:17;;;;;;;101.00;29.42;;;7.40;99.90;;;;;;5053951;28;20095;-65
2023/12/09 01:10:43;;;;;;;85.03;28.45;;;7.60;99.90;;;;;;5046107;28;20040;-65
2023/12/09 01:13:09;;;;;;;80.65;27.95;;;7.40;99.90;;;;;;5050912;28;20042;-65
2023/12/09 01:15:34;;;;;;;93.78;30.02;;;7.50;99.90;;;;;;5045350;28;20041;-65
2023/12/09 01:18:00;;;;;;;86.43;29.35;;;7.50;99.90;;;;;;5062000;28;20047;-65
2023/12/09 01:20:26;;;;;;;82.72;28.35;;;7.50;99.90;;;;;;5051814;28;20045;-66
2023/12/09 01:22:52;;;;;;;97.63;28.73;;;7.80;99.90;;;;;;5052036;28;20128;-65
2023/12/09 01:25:17;;;;;;;89.90;26.75;;;7.40;99.90;;;;;;5064891;28;20456;-66
2023/12/09 01:27:43;;;;;;;94.40;27.38;;;7.50;99.90;;;;;;5066354;28;20059;-66
2023/12/09 01:30:09;;;;;;;88.25;26.77;;;7.70;99.90;;;;;;5043620;28;20082;-66
2023/12/09 01:32:34;;;;;;;86.82;28.35;;;7.50;99.90;;;;;;5050920;28;20114;-65
2023/12/09 01:35:01;;;;;;;80.50;27.27;;;7.50;99.90;;;;;;5054055;28;20449;-66
2023/12/09 01:37:26;;;;;;;75.43;25.85;;;7.50;99.90;;;;;;5050123;28;20124;-66
2023/12/09 01:39:52;;;;;;;86.20;27.67;;;7.50;99.90;;;;;;5048648;28;20131;-65
2023/12/09 01:42:19;;;;;;;81.95;27.80;;;7.50;99.90;;;;;;5049524;28;20045;-65
2023/12/09 01:44:44;;;;;;;80.78;26.30;;;7.50;99.90;;;;;;5057494;28;20049;-66
2023/12/09 01:47:11;;;;;;;76.35;26.52;;;7.50;99.90;;;;;;5050983;28;20044;-66
2023/12/09 01:49:37;;;;;;;76.75;26.52;;;7.50;99.90;;;;;;5048471;28;20073;-67
2023/12/09 01:52:03;;;;;;;95.22;26.80;;;7.50;99.90;;;;;;5059631;28;20812;-65
2023/12/09 01:54:29;;;;;;;80.75;26.17;;;7.50;99.90;;;;;;5060040;28;20097;-66
2023/12/09 01:56:56;;;;;;;86.20;24.77;;;7.50;99.90;;;;;;5059239;28;20043;-66
2023/12/09 01:59:22;;;;;;;91.75;25.48;;;7.50;99.90;;;;;;5047186;28;20405;-67
2023/12/09 02:01:49;;;;;;;69.72;24.70;;;7.50;99.90;;;;;;5033719;28;20119;-66
2023/12/09 02:04:16;;;;;;;81.30;26.42;;;7.50;99.90;;;;;;5058147;28;20171;-67
2023/12/09 02:06:42;;;;;;;89.07;25.42;;;7.50;99.90;;;;;;5055755;28;20052;-67
2023/12/09 02:09:09;;;;;;;67.85;23.77;;;7.50;99.90;;;;;;5032792;28;20603;-67
2023/12/09 02:12:04;;;;;;;77.60;24.80;;;7.50;99.90;;;;;;5049153;28;20048;-67
2023/12/09 02:14:36;;;;;;;80.85;24.38;;;7.50;99.90;;;;;;5037430;28;20569;-67
2023/12/09 02:17:14;;;;;;;72.22;23.13;;;7.50;99.90;;;;;;5062727;28;20136;-67
2023/12/09 02:19:40;;;;;;;80.30;24.10;;;7.50;99.90;;;;;;5048236;28;20524;-67
2023/12/09 02:22:08;;;;;;;73.00;23.48;;;7.50;99.90;;;;;;5057589;28;20044;-67
2023/12/09 02:24:34;;;;;;;70.18;22.85;;;7.50;99.90;;;;;;5046056;28;20045;-67
2023/12/09 02:27:13;;;;;;;68.05;22.98;;;7.50;99.90;;;;;;5052182;28;20036;-67
2023/12/09 02:29:47;;;;;;;71.55;23.88;;;7.50;99.90;;;;;;5058124;28;20171;-67
2023/12/09 02:32:15;;;;;;;76.40;25.02;;;7.50;99.90;;;;;;5052646;28;20056;-66
2023/12/09 02:34:43;;;;;;;87.65;24.40;;;7.50;99.90;;;;;;5047863;28;20568;-67
2023/12/09 02:37:11;;;;;;;69.22;23.42;;;7.50;99.90;;;;;;5058837;28;20087;-67
2023/12/09 02:39:37;;;;;;;70.93;24.70;;;7.70;99.90;;;;;;5043446;28;20049;-67
2023/12/09 02:42:04;;;;;;;68.88;23.48;;;7.50;99.90;;;;;;5051012;28;20046;-67
2023/12/09 02:44:30;;;;;;;79.43;24.25;;;7.50;99.90;;;;;;5056472;28;20033;-67
2023/12/09 02:46:56;;;;;;;73.28;23.30;;;7.50;99.90;;;;;;5057439;28;20056;-66
2023/12/09 02:49:23;;;;;;;79.43;24.25;;;7.50;99.90;;;;;;5079790;28;20485;-66
2023/12/09 02:51:49;;;;;;;76.43;24.70;;;7.80;99.90;;;;;;5037457;28;20077;-66
2023/12/09 02:54:15;;;;;;;72.47;24.40;;;7.50;99.90;;;;;;5050914;28;20071;-67
2023/12/09 02:56:41;;;;;;;82.80;24.67;;;7.50;99.90;;;;;;5067081;28;20491;-65
2023/12/09 02:59:07;;;;;;;69.57;23.02;;;7.50;99.90;;;;;;5043129;28;20056;-66
2023/12/09 03:01:32;;;;;;;77.18;24.15;;;7.50;99.90;;;;;;5061284;28;20068;-66
2023/12/09 03:03:58;;;;;;;60.83;22.23;;;7.50;99.90;;;;;;5049715;28;20493;-67
2023/12/09 03:06:24;;;;;;;59.97;21.95;;;7.50;99.90;;;;;;5040304;28;20045;-67
2023/12/09 03:08:50;;;;;;;80.90;22.75;;;7.50;99.90;;;;;;5058186;28;20118;-66
2023/12/09 03:11:15;;;;;;;66.65;22.75;;;7.60;99.90;;;;;;5056760;28;20133;-67
2023/12/09 03:13:41;;;;;;;71.97;23.83;;;7.50;99.90;;;;;;5059104;28;20043;-67
2023/12/09 03:16:07;;;;;;;69.38;22.58;;;7.60;99.90;;;;;;5063901;28;20405;-66
2023/12/09 03:18:33;;;;;;;70.07;22.60;;;7.50;99.90;;;;;;5051716;28;20660;-72
2023/12/09 03:20:59;;;;;;;66.78;22.02;;;7.50;99.90;;;;;;5057437;28;20066;-67
2023/12/09 03:23:24;;;;;;;56.30;21.35;;;7.50;99.90;;;;;;5056835;28;20044;-65
2023/12/09 03:25:53;;;;;;;62.05;19.90;;;7.50;99.90;;;;;;5056734;28;20128;-66
2023/12/09 03:28:18;;;;;;;64.60;21.63;;;7.50;99.90;;;;;;5055571;28;20060;-66
2023/12/09 03:30:44;;;;;;;67.20;20.08;;;7.50;99.90;;;;;;5061686;28;20563;-66
2023/12/09 03:33:10;;;;;;;65.88;22.02;;;7.50;99.90;;;;;;5053484;28;20072;-66
2023/12/09 03:35:35;;;;;;;63.33;21.48;;;7.50;99.90;;;;;;5068481;28;20073;-65
2023/12/09 03:38:01;;;;;;;67.00;21.20;;;7.50;99.90;;;;;;5079272;28;20036;-66
2023/12/09 03:40:27;;;;;;;65.13;20.60;;;7.50;99.90;;;;;;5060302;28;20052;-66
2023/12/09 03:42:52;;;;;;;60.17;20.88;;;7.50;99.90;;;;;;5054227;28;20056;-67
2023/12/09 03:45:18;;;;;;;67.03;23.20;;;7.50;99.90;;;;;;5056010;28;20091;-66
2023/12/09 03:47:45;;;;;;;50.28;19.92;;;7.50;99.90;;;;;;5055611;28;20037;-66
2023/12/09 03:50:10;;;;;;;61.85;20.77;;;7.40;99.90;;;;;;5078269;28;20681;-66
2023/12/09 03:52:36;;;;;;;60.70;20.17;;;7.50;99.90;;;;;;5042025;28;20098;-66
2023/12/09 03:55:03;;;;;;;73.45;21.88;;;7.50;99.90;;;;;;5047895;28;20036;-66
2023/12/09 03:57:29;;;;;;;61.00;21.50;;;7.40;99.90;;;;;;5057151;28;20053;-67
2023/12/09 03:59:56;;;;;;;59.53;20.50;;;7.40;99.90;;;;;;5049170;28;20136;-66
2023/12/09 04:02:21;;;;;;;63.20;22.35;;;7.40;99.90;;;;;;5049865;28;20060;-66
2023/12/09 04:04:47;;;;;;;70.88;21.58;;;7.40;99.90;;;;;;5047265;28;20040;-65
2023/12/09 04:07:13;;;;;;;63.72;21.55;;;7.50;99.90;;;;;;5061033;28;20131;-65
2023/12/09 04:09:38;;;;;;;61.08;21.08;;;7.50;99.90;;;;;;5055056;28;20128;-66
2023/12/09 04:12:04;;;;;;;63.75;21.30;;;7.40;99.90;;;;;;5049578;28;20127;-65
2023/12/09 04:14:30;;;;;;;73.40;22.17;;;7.40;99.90;;;;;;5055896;28;20040;-66
2023/12/09 04:16:55;;;;;;;67.32;22.25;;;7.50;99.90;;;;;;5056507;28;20182;-65
2023/12/09 04:19:21;;;;;;;62.25;21.67;;;7.40;99.90;;;;;;5055436;28;20052;-66
2023/12/09 04:21:47;;;;;;;59.42;20.85;;;7.50;99.90;;;;;;5042217;28;20402;-65
2023/12/09 04:24:12;;;;;;;68.43;20.88;;;7.50;99.90;;;;;;5064235;28;20413;-67
2023/12/09 04:26:38;;;;;;;60.38;19.65;;;7.40;99.90;;;;;;5040769;28;20105;-66
2023/12/09 04:29:06;;;;;;;65.15;19.55;;;7.40;99.90;;;;;;5055516;28;20041;-66
2023/12/09 04:31:32;;;;;;;64.93;19.88;;;7.40;99.90;;;;;;5088739;28;20062;-67
2023/12/09 04:33:57;;;;;;;65.25;19.48;;;7.40;99.90;;;;;;5055332;28;20064;-66
2023/12/09 04:36:24;;;;;;;61.83;19.77;;;7.40;99.90;;;;;;5057497;28;20135;-67
2023/12/09 04:38:49;;;;;;;56.08;19.20;;;7.50;99.90;;;;;;5055629;28;20122;-67
2023/12/09 04:41:15;;;;;;;60.25;19.10;;;7.50;99.90;;;;;;5057085;28;20044;-67
2023/12/09 04:43:41;;;;;;;62.33;19.33;;;7.80;99.90;;;;;;5047883;28;20075;-65
2023/12/09 04:46:07;;;;;;;64.47;19.80;;;7.40;99.90;;;;;;5057135;28;20041;-67
2023/12/09 04:48:33;;;;;;;53.65;19.35;;;7.40;99.90;;;;;;5056930;28;20082;-67
2023/12/09 04:50:59;;;;;;;60.45;18.92;;;7.50;99.90;;;;;;5060705;28;20083;-67
2023/12/09 04:53:24;;;;;;;63.50;19.08;;;7.50;99.90;;;;;;5059110;28;20110;-67
2023/12/09 04:55:50;;;;;;;46.50;18.85;;;7.40;99.90;;;;;;5048316;28;20048;-67
2023/12/09 04:58:16;;;;;;;55.05;18.75;;;7.50;99.90;;;;;;5051996;28;20087;-66
2023/12/09 05:00:42;;;;;;;56.17;18.52;;;7.50;99.90;;;;;;5049390;28;20488;-66
2023/12/09 05:03:07;;;;;;;59.45;18.25;;;7.80;99.90;;;;;;5065393;28;20052;-66
2023/12/09 05:05:33;;;;;;;47.67;17.73;;;7.40;99.90;;;;;;5062638;28;20469;-69
2023/12/09 05:07:59;;;;;;;49.70;17.08;;;7.40;99.90;;;;;;5054024;28;20049;-70
2023/12/09 05:10:24;;;;;;;51.72;16.45;;;7.50;99.90;;;;;;5051480;28;20036;-70
2023/12/09 05:12:50;;;;;;;52.67;16.73;;;7.50;99.90;;;;;;5046631;28;20040;-70
2023/12/09 05:15:16;;;;;;;42.65;16.23;;;7.50;99.90;;;;;;5045047;28;20060;-70
2023/12/09 05:17:41;;;;;;;60.42;18.23;;;7.40;99.90;;;;;;5049428;28;20052;-69
2023/12/09 05:20:09;;;;;;;55.95;16.73;;;7.50;99.90;;;;;;5052472;28;20777;-69
2023/12/09 05:22:35;;;;;;;48.28;16.52;;;7.50;99.90;;;;;;5035161;28;20052;-69
2023/12/09 05:25:00;;;;;;;51.50;16.80;;;7.40;99.90;;;;;;5056270;28;20062;-69
2023/12/09 05:27:26;;;;;;;54.58;16.92;;;7.40;99.90;;;;;;5050460;28;20056;-69
2023/12/09 05:29:53;;;;;;;49.33;17.08;;;7.50;99.90;;;;;;5079707;28;20501;-70
2023/12/09 05:32:19;;;;;;;54.00;15.40;;;7.90;99.90;;;;;;5061475;28;20411;-69
2023/12/09 05:34:44;;;;;;;53.78;17.30;;;7.50;99.90;;;;;;5058958;28;20044;-70
2023/12/09 05:37:10;;;;;;;49.42;16.20;;;7.50;99.90;;;;;;5056624;28;20036;-69
2023/12/09 05:39:36;;;;;;;47.50;15.18;;;7.50;99.90;;;;;;5037853;28;20045;-69
2023/12/09 05:42:02;;;;;;;54.28;15.45;;;7.50;99.90;;;;;;5054405;28;20079;-69
2023/12/09 05:44:27;;;;;;;40.22;14.80;;;7.50;99.90;;;;;;5047230;28;20044;-70
2023/12/09 05:46:53;;;;;;;48.33;15.63;;;7.50;99.90;;;;;;5060071;28;20647;-70
2023/12/09 05:49:19;;;;;;;45.90;15.82;;;7.50;99.90;;;;;;5063445;28;20072;-70
2023/12/09 05:51:45;;;;;;;53.33;16.10;;;7.50;99.90;;;;;;5057783;28;20099;-69
2023/12/09 05:54:11;;;;;;;53.42;15.73;;;7.50;99.90;;;;;;5057086;28;20525;-70
2023/12/09 05:56:36;;;;;;;48.25;15.35;;;7.50;99.90;;;;;;5056655;28;20076;-72
2023/12/09 05:59:02;;;;;;;44.92;14.75;;;7.50;99.90;;;;;;5056162;28;20049;-69
2023/12/09 06:01:28;;;;;;;55.55;14.48;;;7.50;99.90;;;;;;5063534;28;20056;-69
2023/12/09 06:03:54;;;;;;;52.28;14.45;;;7.50;99.90;;;;;;5053404;28;20795;-69
2023/12/09 06:06:19;;;;;;;51.75;14.82;;;7.50;99.90;;;;;;5053435;28;20044;-68
2023/12/09 06:08:45;;;;;;;52.67;15.02;;;7.50;99.90;;;;;;5055964;28;20354;-69
2023/12/09 06:11:11;;;;;;;53.75;14.93;;;7.50;99.90;;;;;;5050979;28;20132;-70
2023/12/09 06:13:37;;;;;;;41.20;14.18;;;7.50;99.90;;;;;;5062319;28;20037;-70
2023/12/09 06:16:03;;;;;;;41.95;14.43;;;7.50;99.90;;;;;;5056738;28;20113;-69
2023/12/09 06:18:28;;;;;;;44.70;13.95;;;7.50;99.90;;;;;;5055055;28;20040;-70
2023/12/09 06:20:54;;;;;;;51.10;13.93;;;7.40;99.90;;;;;;5069658;28;20232;-70
2023/12/09 06:23:20;;;;;;;52.35;14.95;;;7.50;99.90;;;;;;5061137;28;20413;-70
2023/12/09 06:25:46;;;;;;;42.92;13.65;;;7.50;99.90;;;;;;5039975;28;20037;-69
2023/12/09 06:28:12;;;;;;;48.85;14.75;;;7.50;99.90;;;;;;5051012;28;20075;-70
2023/12/09 06:30:37;;;;;;;48.47;15.15;;;7.50;99.90;;;;;;5050072;28;20191;-69
2023/12/09 06:33:03;;;;;;;46.90;14.00;;;7.50;99.90;;;;;;5052959;28;20051;-69
2023/12/09 06:35:29;;;;;;;44.53;14.07;;;7.40;99.90;;;;;;5048974;28;20404;-69
2023/12/09 06:37:55;;;;;;;45.65;12.77;;;7.50;99.90;;;;;;5050423;28;20044;-70
2023/12/09 06:40:23;;;;;;;49.80;13.93;;;7.50;99.90;;;;;;5053769;28;20155;-70
2023/12/09 06:42:49;;;;;;;48.80;13.63;;;7.40;99.90;;;;;;5071628;28;20856;-69
2023/12/09 06:45:15;;;;;;;40.95;12.55;;;7.40;99.90;;;;;;5050213;28;20044;-68
2023/12/09 06:47:40;;;;;;;51.25;14.10;;;7.40;99.90;;;;;;5054687;28;20461;-69
2023/12/09 06:50:06;;;;;;;44.17;12.82;;;7.40;99.90;;;;;;5059759;28;20193;-69
2023/12/09 06:52:32;;;;;;;50.10;13.43;;;7.40;99.90;;;;;;5051834;28;20040;-69
2023/12/09 06:54:58;;;;;;;39.97;13.95;;;7.50;99.90;;;;;;5056983;28;20056;-69
2023/12/09 06:57:25;;;;;;;42.00;12.80;;;7.40;99.90;;;;;;5049696;28;20465;-70
2023/12/09 06:59:51;;;;;;;39.15;12.65;;;7.40;99.90;;;;;;5044410;28;20517;-69
2023/12/09 07:02:17;;;;;;;38.35;12.45;;;7.40;99.90;;;;;;5052530;28;20131;-69
2023/12/09 07:04:42;;;;;;;36.17;12.55;;;7.40;99.90;;;;;;5056710;28;20071;-70
2023/12/09 07:07:08;;;;;;;41.55;13.00;;;7.30;99.90;;;;;;5066380;28;20133;-69
2023/12/09 07:09:34;;;;;;;33.33;12.10;;;7.40;99.90;;;;;;5062459;28;20045;-69
2023/12/09 07:12:00;;;;;;;41.42;13.00;;;7.40;99.90;;;;;;5068998;28;20040;-66
2023/12/09 07:14:26;;;;;;;38.45;12.82;;;7.30;99.90;;;;;;5056222;28;20032;-66
2023/12/09 07:16:51;;;;;;;37.50;12.15;;;7.30;99.90;;;;;;5034039;28;20068;-66
2023/12/09 07:19:17;;;;;;;47.47;13.13;;;7.30;99.90;;;;;;5049532;28;20037;-66
2023/12/09 07:21:43;;;;;;;33.83;12.25;;;7.30;99.90;;;;;;5051763;28;20581;-66
2023/12/09 07:24:08;;;;;;;38.50;12.85;;;7.20;99.90;;;;;;5059388;28;20077;-65
2023/12/09 07:26:34;;;;;;;37.00;12.93;;;7.20;99.90;;;;;;5050233;28;20781;-66
2023/12/09 07:29:03;;;;;;;32.63;12.80;;;7.20;99.90;;;;;;5062960;28;20048;-66
2023/12/09 07:31:29;;;;;;;35.95;11.88;;;7.20;99.90;;;;;;5052651;28;20055;-66
2023/12/09 07:33:55;;;;;;;39.92;12.27;;;7.20;99.90;;;;;;5079253;28;20494;-66
2023/12/09 07:36:21;;;;;;;38.78;12.93;;;7.20;99.90;;;;;;5061760;28;20090;-66
2023/12/09 07:38:47;;;;;;;36.92;12.13;;;7.20;99.90;;;;;;5064454;28;20116;-67
2023/12/09 07:41:14;;;;;;;40.05;12.23;;;7.20;99.90;;;;;;5063142;28;20049;-66
2023/12/09 07:43:39;;;;;;;32.40;12.07;;;7.10;99.90;;;;;;5054186;28;20078;-65
2023/12/09 07:46:06;;;;;;;34.28;11.00;;;7.10;99.90;;;;;;5061708;28;20575;-65
2023/12/09 07:48:32;;;;;;;37.22;11.70;;;7.20;99.90;;;;;;5064407;28;20114;-66
2023/12/09 07:50:57;;;;;;;33.92;10.93;;;7.20;99.90;;;;;;5057612;28;20044;-66
2023/12/09 07:53:23;;;;;;;39.05;10.88;;;7.20;99.90;;;;;;5060225;28;20231;-66
2023/12/09 07:55:49;;;;;;;45.67;12.43;;;7.10;99.90;;;;;;5065692;28;20052;-66
2023/12/09 07:58:15;;;;;;;40.83;10.40;;;7.10;99.90;;;;;;5036693;28;20158;-66
2023/12/09 08:00:41;;;;;;;30.88;9.52;;;7.10;99.90;;;;;;5052402;28;20048;-66
2023/12/09 08:03:07;;;;;;;36.97;10.60;;;7.10;99.90;;;;;;5055721;28;20066;-66
2023/12/09 08:05:34;;;;;;;34.17;9.75;;;7.10;99.90;;;;;;5050152;28;20523;-66
2023/12/09 08:08:01;;;;;;;31.48;10.05;;;7.10;99.90;;;;;;5046264;28;20505;-69
2023/12/09 08:10:27;;;;;;;41.05;11.57;;;7.10;99.90;;;;;;5056297;28;20052;-69
2023/12/09 08:12:53;;;;;;;35.58;11.25;;;7.10;99.90;;;;;;5045576;28;20047;-69
2023/12/09 08:15:19;;;;;;;34.15;9.27;;;7.10;99.90;;;;;;5043735;28;20053;-69
2023/12/09 08:17:45;;;;;;;37.78;9.52;;;7.10;99.90;;;;;;5044378;28;20049;-69
2023/12/09 08:20:11;;;;;;;28.15;9.73;;;7.10;99.90;;;;;;5043519;28;20059;-69
2023/12/09 08:22:41;;;;;;;39.70;9.98;;;7.10;99.90;;;;;;5042965;28;20060;-69
2023/12/09 08:25:09;;;;;;;34.70;9.52;;;7.40;99.90;;;;;;5032197;28;20102;-70
2023/12/09 08:27:36;;;;;;;27.73;9.48;;;7.10;99.90;;;;;;5047155;28;21048;-69
2023/12/09 08:30:03;;;;;;;47.08;10.75;;;7.10;99.90;;;;;;5047163;28;20508;-69
2023/12/09 08:32:29;;;;;;;31.67;10.95;;;7.10;99.90;;;;;;5027219;28;20541;-69
2023/12/09 08:34:54;;;;;;;30.45;10.52;;;7.10;99.90;;;;;;5041788;28;20124;-69
2023/12/09 08:37:25;;;;;;;34.10;9.30;;;7.10;99.90;;;;;;5046150;28;20055;-69
2023/12/09 08:39:54;;;;;;;32.47;10.17;;;7.10;99.90;;;;;;5025024;28;20037;-69
2023/12/09 08:42:23;;;;;;;37.22;10.35;;;7.10;99.90;;;;;;5063530;28;20045;-69
2023/12/09 08:44:49;;;;;;;32.35;11.07;;;7.10;99.90;;;;;;5049054;28;20068;-69
2023/12/09 08:47:15;;;;;;;32.63;10.05;;;7.10;99.90;;;;;;5035699;28;20140;-70
2023/12/09 08:49:41;;;;;;;30.25;8.90;;;7.10;99.90;;;;;;5028767;28;20076;-69
2023/12/09 08:52:07;;;;;;;38.67;9.40;;;7.10;99.90;;;;;;5036187;28;20652;-69
2023/12/09 08:54:32;;;;;;;30.10;8.93;;;7.10;99.90;;;;;;5039631;28;20051;-68
2023/12/09 08:56:58;;;;;;;35.53;9.90;;;7.10;99.90;;;;;;5052162;28;20036;-73
2023/12/09 08:59:24;;;;;;;34.17;9.13;;;7.10;99.90;;;;;;5028192;28;20087;-68
2023/12/09 09:01:49;;;;;;;30.83;8.95;;;7.00;99.90;;;;;;5039850;28;20044;-69
2023/12/09 09:04:15;;;;;;;35.28;8.30;;;7.10;99.90;;;;;;5034444;28;20048;-69
2023/12/09 09:06:41;;;;;;;27.67;8.18;;;7.10;99.90;;;;;;5046522;28;20131;-69
2023/12/09 09:09:09;;;;;;;29.95;7.70;;;7.10;99.90;;;;;;5046387;28;20049;-69
2023/12/09 09:11:35;;;;;;;22.33;7.70;;;7.10;99.90;;;;;;5047457;28;20052;-69
2023/12/09 09:14:01;;;;;;;29.88;8.85;;;7.30;99.90;;;;;;5046079;28;20405;-68
2023/12/09 09:16:27;;;;;;;30.58;8.82;;;7.10;99.90;;;;;;5049953;28;20061;-69
2023/12/09 09:18:52;;;;;;;34.85;7.63;;;7.10;99.90;;;;;;5053252;28;20595;-70
2023/12/09 09:21:18;;;;;;;30.52;7.38;;;7.10;99.90;;;;;;5055200;28;20044;-69
2023/12/09 09:23:44;;;;;;;29.58;7.22;;;7.10;99.90;;;;;;5054386;28;20052;-69
2023/12/09 09:26:10;;;;;;;25.67;6.88;;;7.10;99.90;;;;;;5024021;28;20040;-70
2023/12/09 09:28:36;;;;;;;33.83;8.02;;;7.10;99.90;;;;;;5048786;28;20552;-68
2023/12/09 09:31:02;;;;;;;35.55;8.07;;;7.10;99.90;;;;;;5054541;28;20045;-68
2023/12/09 09:33:27;;;;;;;24.98;7.40;;;7.10;99.90;;;;;;5054041;28;20531;-69
2023/12/09 09:35:54;;;;;;;32.30;6.78;;;7.10;99.90;;;;;;5045402;28;20041;-69
2023/12/09 09:38:23;;;;;;;27.08;7.35;;;7.10;99.90;;;;;;5055080;28;20076;-69
2023/12/09 09:40:52;;;;;;;30.98;7.28;;;7.10;99.90;;;;;;5042244;28;20078;-69
2023/12/09 09:43:24;;;;;;;30.00;6.78;;;7.20;99.90;;;;;;5045494;28;20474;-68
2023/12/09 09:45:56;;;;;;;25.00;6.25;;;7.20;99.90;;;;;;5051585;28;20041;-70
2023/12/09 09:48:24;;;;;;;28.40;5.63;;;7.10;99.90;;;;;;5056182;28;20123;-69
2023/12/09 09:50:56;;;;;;;24.27;5.97;;;7.20;99.90;;;;;;5053115;28;20055;-69
2023/12/09 09:54:00;;;;;;;24.15;6.07;;;7.20;99.90;;;;;;5051986;28;20044;-70
2023/12/09 09:56:26;;;;;;;23.10;6.68;;;7.20;99.90;;;;;;5048685;28;20045;-70
2023/12/09 09:58:52;;;;;;;24.55;5.22;;;7.20;99.90;;;;;;5058373;28;20048;-70
2023/12/09 10:01:21;;;;;;;22.38;5.18;;;7.20;99.90;;;;;;5050446;28;20044;-70
2023/12/09 10:03:47;;;;;;;21.88;5.75;;;7.20;99.90;;;;;;5052140;28;20060;-70
2023/12/09 10:06:14;;;;;;;22.40;5.00;;;7.20;99.90;;;;;;5049253;28;20045;-69
2023/12/09 10:08:39;;;;;;;27.60;5.80;;;7.20;99.90;;;;;;5037780;28;20048;-68
2023/12/09 10:11:05;;;;;;;17.33;4.68;;;7.20;99.90;;;;;;5058317;28;20063;-68
2023/12/09 10:13:31;;;;;;;24.67;5.32;;;7.20;99.90;;;;;;5047548;28;20427;-68
2023/12/09 10:15:56;;;;;;;28.02;5.03;;;7.20;99.90;;;;;;5057864;28;20146;-67
2023/12/09 10:18:24;;;;;;;23.63;5.05;;;7.20;99.90;;;;;;5053074;28;20040;-68
2023/12/09 10:20:50;;;;;;;19.65;5.32;;;7.20;99.90;;;;;;5043582;28;20044;-69
2023/12/09 10:23:16;;;;;;;19.98;4.68;;;7.20;99.90;;;;;;5024114;28;20049;-69
2023/12/09 10:25:42;;;;;;;23.02;4.38;;;7.20;99.90;;;;;;5032732;28;20044;-69
2023/12/09 10:28:08;;;;;;;20.10;4.47;;;7.20;99.90;;;;;;5040517;28;20056;-69
2023/12/09 10:30:34;;;;;;;22.63;5.00;;;7.20;99.90;;;;;;5042793;28;20049;-69
2023/12/09 10:33:01;;;;;;;20.45;4.10;;;7.20;99.90;;;;;;5029694;28;20050;-68
2023/12/09 10:35:27;;;;;;;16.85;4.57;;;7.30;99.90;;;;;;5034703;28;20056;-67
2023/12/09 10:37:54;;;;;;;20.08;4.40;;;7.20;99.90;;;;;;5026118;28;20076;-70
2023/12/09 10:40:21;;;;;;;18.88;4.85;;;7.30;99.90;;;;;;5032742;28;20053;-68
2023/12/09 10:42:46;;;;;;;22.95;4.97;;;7.30;99.90;;;;;;5030294;28;20050;-68
2023/12/09 10:45:12;;;;;;;30.70;4.50;;;7.30;99.90;;;;;;5031665;28;20045;-69
2023/12/09 10:47:38;;;;;;;23.08;4.25;;;7.80;99.90;;;;;;5035752;28;20156;-68
2023/12/09 10:50:05;;;;;;;18.80;4.22;;;7.30;99.90;;;;;;5042699;28;20049;-70
2023/12/09 10:52:31;;;;;;;27.23;5.05;;;7.30;99.90;;;;;;5038274;28;20128;-68
2023/12/09 10:54:57;;;;;;;26.17;3.97;;;7.40;99.90;;;;;;5026708;28;20076;-68
2023/12/09 10:57:27;;;;;;;24.10;4.10;;;7.30;99.90;;;;;;5034542;28;20137;-68
2023/12/09 10:59:53;;;;;;;20.88;3.95;;;7.30;99.90;;;;;;5030305;28;20048;-69
2023/12/09 11:02:21;;;;;;;14.57;3.60;;;7.40;99.90;;;;;;5034306;28;20060;-69
2023/12/09 11:04:47;;;;;;;17.10;3.55;;;7.40;99.90;;;;;;5021150;28;20140;-70
2023/12/09 11:07:14;;;;;;;22.55;4.07;;;7.40;99.90;;;;;;5034354;28;20053;-69
2023/12/09 11:09:40;;;;;;;13.57;3.75;;;7.40;99.90;;;;;;5039414;28;20052;-69
2023/12/09 11:12:07;;;;;;;18.10;3.72;;;7.40;99.90;;;;;;5033659;28;20064;-66
2023/12/09 11:14:34;;;;;;;22.33;4.40;;;7.40;99.90;;;;;;5038478;28;20057;-68
2023/12/09 11:17:01;;;;;;;19.40;3.10;;;7.40;99.90;;;;;;5015681;28;20041;-67
2023/12/09 11:19:27;;;;;;;15.35;4.55;;;7.40;99.90;;;;;;5033536;28;20052;-67
2023/12/09 11:21:53;;;;;;;21.52;3.65;;;7.50;99.90;;;;;;5037223;28;20358;-68
2023/12/09 11:24:19;;;;;;;16.17;3.28;;;7.50;99.90;;;;;;5017238;28;20050;-66
2023/12/09 11:26:46;;;;;;;23.08;4.03;;;7.50;99.90;;;;;;5037244;28;20077;-66
2023/12/09 11:29:12;;;;;;;15.32;3.20;;;7.50;99.90;;;;;;5038080;28;20105;-66
2023/12/09 11:31:39;;;;;;;17.88;3.50;;;7.50;99.90;;;;;;5038253;28;20051;-66
2023/12/09 11:34:07;;;;;;;17.10;3.22;;;7.50;99.90;;;;;;5026007;28;20139;-66
2023/12/09 11:36:38;;;;;;;21.02;3.58;;;7.50;99.90;;;;;;5036249;28;20046;-67
2023/12/09 11:39:09;;;;;;;21.75;3.03;;;7.50;99.90;;;;;;5036645;28;20049;-67
2023/12/09 11:41:36;;;;;;;;;;;7.50;99.90;;;;;;5031943;28;20052;-67
2023/12/09 11:44:03;;;;;;;13.93;2.55;;;7.50;99.90;;;;;;5033038;28;19921;-68
2023/12/09 11:46:34;;;;;;;17.17;3.15;;;7.50;99.90;;;;;;5035575;28;20049;-67
2023/12/09 11:49:01;;;;;;;13.95;2.97;;;7.50;99.90;;;;;;5036490;28;20046;-67
2023/12/09 11:51:28;;;;;;;15.40;3.38;;;7.50;99.90;;;;;;5033600;28;20037;-67
2023/12/09 11:54:01;;;;;;;17.95;3.53;;;7.50;99.90;;;;;;5034818;28;20051;-68
2023/12/09 11:56:28;;;;;;;13.25;2.95;;;7.60;99.90;;;;;;5048238;28;20545;-67
2023/12/09 11:58:54;;;;;;;13.65;2.80;;;7.50;99.90;;;;;;5030299;28;20045;-68
2023/12/09 12:01:21;;;;;;;11.80;3.08;;;7.50;99.90;;;;;;5024401;28;20081;-66
2023/12/09 12:03:47;;;;;;;14.50;3.00;;;7.50;99.90;;;;;;5018179;28;20057;-66
2023/12/09 12:06:17;;;;;;;17.30;3.20;;;7.60;99.90;;;;;;5031688;28;20044;-66
2023/12/09 12:08:47;;;;;;;12.52;2.78;;;8.00;99.90;;;;;;5040930;28;20844;-66
2023/12/09 12:11:17;;;;;;;13.02;3.20;;;7.50;99.90;;;;;;5031793;28;20058;-67
2023/12/09 12:13:44;;;;;;;13.18;3.08;;;8.00;99.90;;;;;;5041349;28;20040;-67
2023/12/09 12:16:11;;;;;;;17.13;2.78;;;7.50;99.90;;;;;;5042101;28;20040;-68
2023/12/09 12:18:37;;;;;;;17.13;3.08;;;7.50;99.90;;;;;;5034257;28;20190;-68
2023/12/09 12:21:04;;;;;;;12.40;2.28;;;7.50;99.90;;;;;;5028116;28;20502;-67
2023/12/09 12:23:31;;;;;;;9.85;2.70;;;7.60;99.90;;;;;;5038962;28;20531;-66
2023/12/09 12:25:57;;;;;;;13.85;2.63;;;7.60;99.90;;;;;;5036112;28;20055;-67
2023/12/09 12:28:24;;;;;;;15.15;3.28;;;7.50;99.90;;;;;;5038136;28;20044;-66
2023/12/09 12:30:51;;;;;;;11.48;2.55;;;7.50;99.90;;;;;;5035780;28;20064;-66
2023/12/09 12:33:21;;;;;;;13.90;3.10;;;7.60;99.90;;;;;;5020080;28;20576;-66
2023/12/09 12:35:50;;;;;;;18.55;3.22;;;7.60;99.90;;;;;;5031105;28;20799;-66